Time;durP1;ratioP1;P1;durP2;ratioP2;P2;SDS_P1;SDS_P2;PMS_P1;PMS_P2;Temp;Humidity;BMP_temperature;BMP_pressure;BME280_temperature;BME280_humidity;BME280_pressure;Samples;Min_cycle;Max_cycle;Signal;HPM_P1;HPM_P2
2024/01/25 00:01:11;;;;;;;1.08;0.60;;;20.20;50.80;;;;;;5070609;28;20468;-65
2024/01/25 00:03:37;;;;;;;1.42;0.60;;;20.10;50.70;;;;;;5079141;28;20134;-65
2024/01/25 00:06:04;;;;;;;1.02;0.60;;;20.10;50.70;;;;;;5079582;28;20028;-65
2024/01/25 00:08:29;;;;;;;1.05;0.60;;;20.10;50.70;;;;;;5074715;28;20027;-64
2024/01/25 00:10:55;;;;;;;1.08;0.60;;;20.10;50.70;;;;;;5079284;28;20028;-64
2024/01/25 00:13:20;;;;;;;1.05;0.70;;;20.10;50.70;;;;;;5080045;28;20094;-64
2024/01/25 00:15:46;;;;;;;1.60;0.50;;;20.10;50.70;;;;;;5077302;28;20025;-64
2024/01/25 00:18:12;;;;;;;1.10;0.50;;;20.10;50.70;;;;;;5077911;28;20472;-64
2024/01/25 00:20:37;;;;;;;1.48;0.60;;;20.10;50.80;;;;;;5078677;28;20092;-64
2024/01/25 00:23:03;;;;;;;1.15;0.65;;;20.10;50.80;;;;;;5077502;28;20718;-64
2024/01/25 00:25:29;;;;;;;0.93;0.60;;;20.00;50.70;;;;;;5079062;28;20029;-64
2024/01/25 00:27:54;;;;;;;1.00;0.50;;;20.10;50.80;;;;;;5077502;28;20032;-63
2024/01/25 00:30:20;;;;;;;0.85;0.52;;;20.10;50.80;;;;;;5079436;28;20036;-64
2024/01/25 00:32:46;;;;;;;0.88;0.60;;;20.00;50.70;;;;;;5078621;28;20028;-64
2024/01/25 00:35:13;;;;;;;0.90;0.50;;;20.00;50.70;;;;;;5079015;28;20036;-64
2024/01/25 00:37:40;;;;;;;1.05;0.57;;;20.10;50.80;;;;;;5076554;28;20047;-65
2024/01/25 00:40:07;;;;;;;1.27;0.60;;;20.00;50.70;;;;;;5078316;28;20019;-65
2024/01/25 00:42:40;;;;;;;0.93;0.57;;;20.00;50.70;;;;;;5076290;28;20503;-65
2024/01/25 00:45:09;;;;;;;0.85;0.60;;;20.00;50.80;;;;;;5078705;28;20056;-65
2024/01/25 00:47:35;;;;;;;0.93;0.60;;;20.00;50.70;;;;;;5077952;28;20107;-65
2024/01/25 00:50:01;;;;;;;1.10;0.55;;;20.00;50.70;;;;;;5069708;28;20040;-65
2024/01/25 00:52:27;;;;;;;1.30;0.70;;;20.00;50.80;;;;;;5079338;28;20504;-65
2024/01/25 00:54:53;;;;;;;1.83;0.70;;;20.00;50.70;;;;;;5067706;28;20059;-65
2024/01/25 00:57:19;;;;;;;0.73;0.50;;;20.00;50.70;;;;;;5078869;28;20392;-64
2024/01/25 00:59:45;;;;;;;0.57;0.43;;;20.00;50.80;;;;;;5079018;28;20029;-64
2024/01/25 01:02:12;;;;;;;1.13;0.57;;;20.00;50.80;;;;;;5079034;28;20111;-64
2024/01/25 01:04:38;;;;;;;1.20;0.60;;;20.00;50.80;;;;;;5077350;28;20434;-64
2024/01/25 01:07:05;;;;;;;1.15;0.60;;;19.90;50.80;;;;;;5077945;28;20373;-63
2024/01/25 01:09:30;;;;;;;1.42;0.60;;;20.00;50.80;;;;;;5077534;28;20040;-64
2024/01/25 01:11:56;;;;;;;1.35;0.63;;;20.00;50.80;;;;;;5077475;28;20739;-65
2024/01/25 01:14:22;;;;;;;1.13;0.60;;;19.90;50.70;;;;;;5078939;28;20024;-64
2024/01/25 01:16:47;;;;;;;1.17;0.60;;;19.90;50.70;;;;;;5079690;28;20095;-65
2024/01/25 01:19:13;;;;;;;1.00;0.60;;;19.90;50.70;;;;;;5079295;28;20039;-64
2024/01/25 01:21:43;;;;;;;1.10;0.60;;;19.90;50.80;;;;;;5080691;28;20506;-64
2024/01/25 01:24:12;;;;;;;0.95;0.50;;;19.90;50.70;;;;;;5075740;28;20370;-65
2024/01/25 01:26:38;;;;;;;0.75;0.50;;;19.90;50.80;;;;;;5059672;28;20048;-64
2024/01/25 01:29:03;;;;;;;0.68;0.50;;;19.90;50.70;;;;;;5077261;28;20556;-64
2024/01/25 01:31:29;;;;;;;1.23;0.60;;;19.90;50.70;;;;;;5076952;28;20032;-64
2024/01/25 01:33:55;;;;;;;0.77;0.50;;;19.90;51.30;;;;;;5080599;28;20024;-64
2024/01/25 01:36:20;;;;;;;1.30;0.60;;;19.90;50.70;;;;;;5094326;28;20115;-64
2024/01/25 01:38:46;;;;;;;0.68;0.50;;;19.90;50.70;;;;;;5076198;28;20598;-64
2024/01/25 01:41:15;;;;;;;0.90;0.70;;;19.90;50.70;;;;;;5079263;28;20910;-64
2024/01/25 01:43:40;;;;;;;1.20;0.70;;;19.90;50.70;;;;;;5079830;28;20040;-64
2024/01/25 01:46:39;;;;;;;1.13;0.60;;;19.80;50.70;;;;;;5077692;28;20040;-64
2024/01/25 01:49:07;;;;;;;0.75;0.50;;;19.80;50.70;;;;;;5078050;28;20028;-65
2024/01/25 01:51:33;;;;;;;0.88;0.50;;;19.80;50.70;;;;;;5079087;28;20028;-65
2024/01/25 01:54:05;;;;;;;0.88;0.63;;;19.80;50.70;;;;;;5078014;28;20032;-66
2024/01/25 01:56:31;;;;;;;1.00;0.60;;;19.80;50.70;;;;;;5081989;28;20052;-66
2024/01/25 01:59:01;;;;;;;0.90;0.40;;;19.80;50.70;;;;;;5082193;28;20035;-66
2024/01/25 02:01:28;;;;;;;0.65;0.43;;;19.80;50.70;;;;;;5081455;28;20151;-66
2024/01/25 02:03:55;;;;;;;0.98;0.60;;;19.80;51.20;;;;;;5081278;28;20029;-66
2024/01/25 02:06:23;;;;;;;1.35;0.70;;;19.80;50.70;;;;;;5081483;28;20020;-66
2024/01/25 02:08:50;;;;;;;1.40;0.50;;;19.80;50.70;;;;;;5081149;28;20491;-67
2024/01/25 02:11:16;;;;;;;1.23;0.60;;;19.80;51.20;;;;;;5082640;28;20025;-66
2024/01/25 02:13:42;;;;;;;0.85;0.60;;;19.80;50.70;;;;;;5082133;28;20389;-66
2024/01/25 02:16:08;;;;;;;0.57;0.50;;;19.80;50.70;;;;;;5082463;28;20024;-66
2024/01/25 02:18:34;;;;;;;0.77;0.50;;;19.80;50.80;;;;;;5080526;28;20043;-66
2024/01/25 02:21:00;;;;;;;1.13;0.60;;;19.80;50.80;;;;;;5082673;28;20020;-66
2024/01/25 02:23:26;;;;;;;1.17;0.60;;;19.80;50.80;;;;;;5080413;28;20126;-66
2024/01/25 02:25:51;;;;;;;0.50;0.50;;;19.80;50.80;;;;;;5079882;28;20040;-66
2024/01/25 02:28:17;;;;;;;1.13;0.52;;;19.70;50.70;;;;;;5080540;28;20491;-67
2024/01/25 02:30:43;;;;;;;1.15;0.70;;;19.70;50.70;;;;;;5082050;28;20017;-66
2024/01/25 02:33:08;;;;;;;0.85;0.60;;;19.70;50.80;;;;;;5084709;28;20499;-66
2024/01/25 02:35:34;;;;;;;1.02;0.60;;;19.70;50.70;;;;;;5082508;28;20028;-66
2024/01/25 02:38:00;;;;;;;1.23;0.60;;;19.70;50.70;;;;;;5078099;28;20047;-66
2024/01/25 02:40:25;;;;;;;0.93;0.50;;;19.70;50.80;;;;;;5079767;28;20028;-66
2024/01/25 02:42:51;;;;;;;1.30;0.60;;;19.70;50.80;;;;;;5080555;28;20028;-66
2024/01/25 02:45:17;;;;;;;0.70;0.50;;;19.70;50.80;;;;;;5082645;28;20059;-66
2024/01/25 02:47:42;;;;;;;1.20;0.60;;;19.70;50.80;;;;;;5081309;28;20036;-66
2024/01/25 02:50:08;;;;;;;1.15;0.80;;;19.70;50.80;;;;;;5078056;28;20085;-66
2024/01/25 02:52:34;;;;;;;1.33;0.73;;;19.70;50.80;;;;;;5096856;28;20025;-66
2024/01/25 02:55:00;;;;;;;1.02;0.60;;;19.70;50.80;;;;;;5078711;28;20420;-67
2024/01/25 02:57:26;;;;;;;1.48;0.80;;;19.70;50.80;;;;;;5080724;28;20032;-67
2024/01/25 02:59:52;;;;;;;1.10;0.50;;;19.70;50.80;;;;;;5080992;28;20058;-67
2024/01/25 03:02:19;;;;;;;1.40;0.70;;;19.70;50.80;;;;;;5083732;28;20103;-66
2024/01/25 03:04:45;;;;;;;0.70;0.50;;;19.70;50.80;;;;;;5094024;28;20028;-67
2024/01/25 03:07:11;;;;;;;1.02;0.65;;;19.60;51.20;;;;;;5080821;28;20044;-67
2024/01/25 03:09:37;;;;;;;0.85;0.40;;;19.60;50.80;;;;;;5061710;28;20027;-66
2024/01/25 03:12:02;;;;;;;1.27;0.70;;;19.70;50.80;;;;;;5078896;28;20035;-67
2024/01/25 03:14:28;;;;;;;0.85;0.57;;;19.60;50.70;;;;;;5081082;28;20472;-66
2024/01/25 03:16:57;;;;;;;1.50;0.70;;;19.70;50.80;;;;;;5080079;28;20017;-67
2024/01/25 03:19:27;;;;;;;1.40;0.70;;;19.60;50.70;;;;;;5080370;28;20032;-64
2024/01/25 03:21:54;;;;;;;0.95;0.63;;;19.60;50.70;;;;;;5077977;28;20606;-65
2024/01/25 03:24:20;;;;;;;0.80;0.60;;;19.60;50.80;;;;;;5080423;28;20468;-64
2024/01/25 03:26:46;;;;;;;1.02;0.52;;;19.60;50.90;;;;;;5080152;28;20029;-65
2024/01/25 03:29:11;;;;;;;0.90;0.50;;;19.60;50.80;;;;;;5079928;28;20480;-64
2024/01/25 03:31:37;;;;;;;1.63;0.60;;;19.60;51.30;;;;;;5070943;28;20033;-64
2024/01/25 03:34:03;;;;;;;1.00;0.57;;;19.60;50.80;;;;;;5078782;28;20029;-64
2024/01/25 03:36:29;;;;;;;0.75;0.55;;;19.60;50.80;;;;;;5078635;28;20077;-65
2024/01/25 03:38:54;;;;;;;1.52;0.60;;;19.60;50.80;;;;;;5078364;28;20529;-66
2024/01/25 03:41:20;;;;;;;0.60;0.50;;;19.60;50.80;;;;;;5080763;28;20099;-66
2024/01/25 03:43:46;;;;;;;0.90;0.50;;;19.60;50.80;;;;;;5080889;28;20365;-66
2024/01/25 03:46:12;;;;;;;0.73;0.50;;;19.60;50.80;;;;;;5081019;28;20025;-66
2024/01/25 03:48:38;;;;;;;1.15;0.70;;;19.60;50.80;;;;;;5079752;28;20393;-66
2024/01/25 03:51:04;;;;;;;1.30;0.65;;;19.60;50.80;;;;;;5082646;28;20164;-66
2024/01/25 03:53:30;;;;;;;1.30;0.60;;;19.50;50.70;;;;;;5079565;28;20142;-66
2024/01/25 03:55:55;;;;;;;0.73;0.50;;;19.60;50.80;;;;;;5077078;28;20020;-66
2024/01/25 03:58:21;;;;;;;0.55;0.43;;;19.60;50.80;;;;;;5080342;28;20027;-66
2024/01/25 04:00:47;;;;;;;0.93;0.50;;;19.60;50.80;;;;;;5080298;28;20025;-66
2024/01/25 04:03:13;;;;;;;1.08;0.50;;;19.50;50.70;;;;;;5080659;28;20028;-66
2024/01/25 04:05:41;;;;;;;0.77;0.60;;;19.60;50.80;;;;;;5078422;28;20384;-66
2024/01/25 04:08:07;;;;;;;1.15;0.57;;;19.50;50.70;;;;;;5079695;28;20035;-67
2024/01/25 04:10:33;;;;;;;1.33;0.60;;;19.50;50.70;;;;;;5080828;28;20761;-67
2024/01/25 04:13:03;;;;;;;1.00;0.63;;;19.50;50.70;;;;;;5080758;28;20115;-67
2024/01/25 04:15:29;;;;;;;1.27;0.80;;;19.50;50.70;;;;;;5069388;28;20039;-67
2024/01/25 04:17:56;;;;;;;1.38;0.60;;;19.50;50.70;;;;;;5078217;28;20032;-67
2024/01/25 04:20:21;;;;;;;0.70;0.50;;;19.60;50.80;;;;;;5080112;28;20021;-67
2024/01/25 04:22:47;;;;;;;0.90;0.50;;;19.50;50.80;;;;;;5079067;28;20081;-67
2024/01/25 04:25:13;;;;;;;1.00;0.50;;;19.50;50.70;;;;;;5074580;28;20039;-67
2024/01/25 04:27:38;;;;;;;1.75;0.60;;;19.50;50.80;;;;;;5078663;28;20025;-63
2024/01/25 04:30:05;;;;;;;1.00;0.57;;;19.50;50.80;;;;;;5079334;28;20044;-64
2024/01/25 04:32:31;;;;;;;0.82;0.70;;;19.50;50.80;;;;;;5077054;28;20078;-64
2024/01/25 04:34:57;;;;;;;0.80;0.60;;;19.50;50.80;;;;;;5079528;28;20063;-64
2024/01/25 04:37:22;;;;;;;0.95;0.52;;;19.50;50.80;;;;;;5077997;28;20532;-64
2024/01/25 04:39:48;;;;;;;0.70;0.50;;;19.50;50.80;;;;;;5078776;28;20028;-64
2024/01/25 04:42:14;;;;;;;1.05;0.60;;;19.50;50.80;;;;;;5078704;28;20037;-64
2024/01/25 04:44:39;;;;;;;1.33;0.75;;;19.50;50.80;;;;;;5078937;28;20078;-64
2024/01/25 04:47:05;;;;;;;1.33;0.70;;;19.50;50.80;;;;;;5078194;28;20058;-64
2024/01/25 04:49:31;;;;;;;0.65;0.45;;;19.50;50.80;;;;;;5078286;28;20104;-65
2024/01/25 04:51:56;;;;;;;1.13;0.57;;;19.50;50.90;;;;;;5079216;28;20476;-64
2024/01/25 04:54:22;;;;;;;1.50;0.70;;;19.50;51.30;;;;;;5080172;28;20029;-64
2024/01/25 04:56:47;;;;;;;0.85;0.50;;;19.50;50.90;;;;;;5078590;28;20056;-65
2024/01/25 04:59:13;;;;;;;0.95;0.60;;;19.50;50.80;;;;;;5079061;28;20138;-65
2024/01/25 05:01:38;;;;;;;0.93;0.60;;;19.40;50.80;;;;;;5077783;28;20148;-65
2024/01/25 05:04:04;;;;;;;0.88;0.60;;;19.50;50.90;;;;;;5068959;28;20032;-64
2024/01/25 05:06:30;;;;;;;0.60;0.52;;;19.50;50.90;;;;;;5069431;28;20024;-64
2024/01/25 05:08:56;;;;;;;1.23;0.57;;;19.40;50.80;;;;;;5080096;28;20025;-65
2024/01/25 05:11:21;;;;;;;0.82;0.52;;;19.50;50.90;;;;;;5076217;28;20143;-65
2024/01/25 05:13:47;;;;;;;0.57;0.50;;;19.40;50.80;;;;;;5078535;28;20032;-63
2024/01/25 05:16:13;;;;;;;1.25;0.70;;;19.50;50.90;;;;;;5079433;28;20142;-64
2024/01/25 05:18:38;;;;;;;0.93;0.55;;;19.40;50.90;;;;;;5081014;28;20020;-66
2024/01/25 05:21:04;;;;;;;1.05;0.50;;;19.40;50.90;;;;;;5060527;28;20032;-66
2024/01/25 05:23:30;;;;;;;1.55;0.60;;;19.40;50.90;;;;;;5080126;28;20052;-66
2024/01/25 05:25:56;;;;;;;0.75;0.55;;;19.40;50.90;;;;;;5078106;28;20059;-65
2024/01/25 05:28:21;;;;;;;1.30;0.60;;;19.40;51.50;;;;;;5080592;28;20079;-66
2024/01/25 05:30:47;;;;;;;1.70;0.80;;;19.40;50.90;;;;;;5085116;28;20031;-66
2024/01/25 05:33:12;;;;;;;1.02;0.65;;;19.40;51.00;;;;;;5083660;28;20037;-66
2024/01/25 05:35:38;;;;;;;1.02;0.60;;;19.40;51.00;;;;;;5082137;28;20410;-66
2024/01/25 05:38:04;;;;;;;1.35;0.60;;;19.40;51.00;;;;;;5081713;28;20024;-64
2024/01/25 05:40:29;;;;;;;1.05;0.60;;;19.40;51.00;;;;;;5077888;28;20032;-64
2024/01/25 05:42:55;;;;;;;1.00;0.50;;;19.40;51.00;;;;;;5082414;28;20036;-64
2024/01/25 05:45:21;;;;;;;1.10;0.60;;;19.40;51.00;;;;;;5084224;28;20322;-64
2024/01/25 05:47:50;;;;;;;0.50;0.50;;;19.40;51.10;;;;;;5081514;28;20114;-64
2024/01/25 05:50:16;;;;;;;1.92;0.55;;;19.40;51.10;;;;;;5081355;28;20024;-64
2024/01/25 05:52:41;;;;;;;1.30;0.60;;;19.40;51.10;;;;;;5080835;28;20059;-64
2024/01/25 05:55:08;;;;;;;1.20;0.70;;;19.40;51.10;;;;;;5079093;28;20036;-64
2024/01/25 05:57:36;;;;;;;1.80;0.80;;;19.30;51.10;;;;;;5063827;28;20035;-66
2024/01/25 06:00:02;;;;;;;1.27;0.60;;;19.40;51.60;;;;;;5080842;28;20029;-66
2024/01/25 06:02:28;;;;;;;1.33;0.65;;;19.40;51.10;;;;;;5080970;28;20024;-66
2024/01/25 06:04:54;;;;;;;1.40;0.70;;;19.40;51.20;;;;;;5082440;28;20035;-66
2024/01/25 06:07:20;;;;;;;0.98;0.60;;;19.40;51.30;;;;;;5080566;28;20078;-66
2024/01/25 06:09:46;;;;;;;1.05;0.60;;;19.40;51.20;;;;;;5082517;28;20085;-66
2024/01/25 06:12:11;;;;;;;1.38;0.70;;;19.40;51.20;;;;;;5097491;28;20055;-66
2024/01/25 06:14:37;;;;;;;1.05;0.60;;;19.30;51.10;;;;;;5072390;28;20513;-66
2024/01/25 06:17:03;;;;;;;2.00;0.70;;;19.40;51.20;;;;;;5079476;28;20525;-66
2024/01/25 06:19:29;;;;;;;0.93;0.60;;;19.30;51.10;;;;;;5081704;28;20059;-66
2024/01/25 06:21:54;;;;;;;1.52;0.90;;;19.30;51.10;;;;;;5082770;28;20078;-66
2024/01/25 06:24:20;;;;;;;1.30;0.60;;;19.30;51.10;;;;;;5081966;28;20028;-66
2024/01/25 06:26:45;;;;;;;1.60;0.80;;;19.40;51.20;;;;;;5079711;28;20167;-66
2024/01/25 06:29:11;;;;;;;1.40;0.85;;;19.40;51.20;;;;;;5080817;28;20460;-64
2024/01/25 06:31:42;;;;;;;1.30;0.70;;;19.30;51.10;;;;;;5062655;28;20060;-65
2024/01/25 06:34:08;;;;;;;2.03;0.73;;;19.40;51.20;;;;;;5080967;28;20023;-64
2024/01/25 06:36:33;;;;;;;2.00;0.82;;;19.30;51.20;;;;;;5081983;28;20028;-63
2024/01/25 06:38:59;;;;;;;1.00;0.70;;;19.40;51.20;;;;;;5080106;28;20020;-64
2024/01/25 06:41:25;;;;;;;1.67;0.77;;;19.30;51.20;;;;;;5080329;28;20094;-64
2024/01/25 06:43:50;;;;;;;1.45;0.68;;;19.30;51.30;;;;;;5078287;28;20496;-64
2024/01/25 06:46:16;;;;;;;2.00;0.73;;;19.30;51.20;;;;;;5080964;28;20078;-64
2024/01/25 06:48:42;;;;;;;1.25;0.73;;;19.30;51.20;;;;;;5078058;28;20020;-64
2024/01/25 06:51:07;;;;;;;1.73;0.80;;;19.40;51.30;;;;;;5081775;28;20028;-63
2024/01/25 06:53:33;;;;;;;1.00;0.60;;;19.30;51.30;;;;;;5081635;28;20392;-63
2024/01/25 06:55:59;;;;;;;1.55;0.70;;;19.30;51.30;;;;;;5080088;28;20035;-63
2024/01/25 06:58:24;;;;;;;1.70;0.70;;;19.30;51.30;;;;;;5080659;28;20510;-64
2024/01/25 07:00:50;;;;;;;1.00;0.60;;;19.40;51.40;;;;;;5081022;28;20036;-64
2024/01/25 07:03:16;;;;;;;0.90;0.60;;;19.40;51.40;;;;;;5071113;28;20078;-64
2024/01/25 07:05:42;;;;;;;1.80;0.80;;;19.30;51.40;;;;;;5083274;28;20341;-63
2024/01/25 07:08:12;;;;;;;1.65;0.88;;;19.30;51.50;;;;;;5080084;28;20028;-65
2024/01/25 07:10:38;;;;;;;1.60;0.60;;;19.30;51.40;;;;;;5081142;28;20055;-66
2024/01/25 07:13:04;;;;;;;1.33;0.60;;;19.30;51.50;;;;;;5080191;28;20540;-66
2024/01/25 07:15:29;;;;;;;2.22;0.80;;;19.30;51.50;;;;;;5083538;28;20032;-65
2024/01/25 07:17:55;;;;;;;1.33;0.70;;;19.30;51.50;;;;;;5081736;28;20029;-66
2024/01/25 07:20:20;;;;;;;0.88;0.60;;;19.30;51.50;;;;;;5081568;28;20032;-66
2024/01/25 07:22:46;;;;;;;1.30;0.60;;;19.30;51.60;;;;;;5079749;28;20556;-66
2024/01/25 07:25:12;;;;;;;1.52;0.80;;;19.30;51.60;;;;;;5060055;28;20115;-66
2024/01/25 07:27:37;;;;;;;0.98;0.65;;;19.30;51.60;;;;;;5078356;28;20024;-66
2024/01/25 07:30:03;;;;;;;2.45;1.00;;;19.30;51.60;;;;;;5079060;28;20397;-66
2024/01/25 07:32:29;;;;;;;1.48;0.80;;;19.30;51.60;;;;;;5079810;28;20043;-66
2024/01/25 07:34:54;;;;;;;1.73;0.90;;;19.30;51.60;;;;;;5080320;28;20043;-66
2024/01/25 07:37:20;;;;;;;2.10;0.90;;;19.30;51.70;;;;;;5082221;28;20057;-66
2024/01/25 07:39:45;;;;;;;2.35;0.70;;;19.30;51.70;;;;;;5080729;28;20102;-64
2024/01/25 07:42:12;;;;;;;2.33;0.60;;;19.30;51.80;;;;;;5079160;28;20040;-64
2024/01/25 07:44:38;;;;;;;1.17;0.65;;;19.40;52.90;;;;;;5078932;28;20012;-64
2024/01/25 07:47:03;;;;;;;2.17;0.80;;;19.50;53.40;;;;;;5078832;28;20024;-63
2024/01/25 07:49:30;;;;;;;0.93;0.70;;;19.70;53.30;;;;;;5079648;28;20456;-64
2024/01/25 07:51:58;;;;;;;0.52;0.47;;;19.80;53.40;;;;;;5078814;28;20469;-65
2024/01/25 07:54:24;;;;;;;1.45;0.50;;;20.00;53.20;;;;;;5079779;28;20021;-64
2024/01/25 07:56:50;;;;;;;1.00;0.50;;;20.10;53.30;;;;;;5078252;28;20100;-65
2024/01/25 07:59:16;;;;;;;1.38;0.60;;;20.30;53.40;;;;;;5080694;28;20110;-66
2024/01/25 08:01:42;;;;;;;0.85;0.50;;;20.50;53.30;;;;;;5080172;28;20027;-66
2024/01/25 08:04:07;;;;;;;0.75;0.40;;;20.60;53.10;;;;;;5077778;28;20032;-66
2024/01/25 08:06:33;;;;;;;0.88;0.50;;;20.70;53.20;;;;;;5079966;28;20130;-66
2024/01/25 08:08:58;;;;;;;0.95;0.50;;;20.80;53.10;;;;;;5079261;28;20099;-66
2024/01/25 08:11:25;;;;;;;0.88;0.40;;;21.00;53.00;;;;;;5077593;28;20391;-66
2024/01/25 08:13:51;;;;;;;0.60;0.40;;;21.10;52.80;;;;;;5078364;28;20028;-66
2024/01/25 08:16:20;;;;;;;0.88;0.50;;;21.30;52.70;;;;;;5080165;28;20025;-66
2024/01/25 08:18:46;;;;;;;1.10;0.50;;;21.50;52.60;;;;;;5080700;28;20404;-64
2024/01/25 08:21:12;;;;;;;0.85;0.40;;;21.60;52.50;;;;;;5078345;28;20063;-64
2024/01/25 08:23:39;;;;;;;0.80;0.40;;;21.70;52.40;;;;;;5076952;28;20659;-64
2024/01/25 08:26:05;;;;;;;1.08;0.43;;;21.90;52.40;;;;;;5076025;28;20028;-63
2024/01/25 08:28:31;;;;;;;0.40;0.40;;;22.00;52.20;;;;;;5077832;28;20093;-63
2024/01/25 08:30:57;;;;;;;0.50;0.40;;;22.20;52.60;;;;;;5076643;28;20028;-64
2024/01/25 08:33:24;;;;;;;0.50;0.40;;;22.30;51.80;;;;;;5077124;28;20497;-64
2024/01/25 08:35:50;;;;;;;0.85;0.50;;;22.40;51.70;;;;;;5077164;28;20020;-64
2024/01/25 08:38:15;;;;;;;0.88;0.55;;;22.60;51.80;;;;;;5077733;28;20024;-64
2024/01/25 08:40:41;;;;;;;0.30;0.30;;;22.90;51.40;;;;;;5079287;28;20028;-64
2024/01/25 08:43:09;;;;;;;0.60;0.50;;;23.20;50.90;;;;;;5090756;28;20066;-65
2024/01/25 08:45:37;;;;;;;1.65;0.32;;;23.40;50.30;;;;;;5079297;28;20086;-64
2024/01/25 08:48:02;;;;;;;0.80;0.40;;;23.40;50.20;;;;;;5076201;28;20043;-64
2024/01/25 08:50:28;;;;;;;0.80;0.40;;;23.30;50.60;;;;;;5079401;28;20111;-64
2024/01/25 08:52:54;;;;;;;0.68;0.40;;;23.30;51.10;;;;;;5080952;28;20024;-64
2024/01/25 08:55:19;;;;;;;1.05;0.60;;;23.30;51.20;;;;;;5080717;28;20082;-63
2024/01/25 08:57:45;;;;;;;0.90;0.40;;;23.50;51.20;;;;;;5077904;28;20025;-65
2024/01/25 09:00:11;;;;;;;0.77;0.50;;;23.50;51.10;;;;;;5075454;28;20105;-64
2024/01/25 09:02:38;;;;;;;1.75;0.50;;;23.70;50.90;;;;;;5079859;28;20028;-64
2024/01/25 09:05:05;;;;;;;0.50;0.40;;;23.70;50.90;;;;;;5078931;28;20491;-63
2024/01/25 09:07:31;;;;;;;0.50;0.50;;;23.60;51.20;;;;;;5079328;28;20032;-63
2024/01/25 09:09:56;;;;;;;0.40;0.40;;;23.60;51.40;;;;;;5077305;28;20040;-65
2024/01/25 09:12:22;;;;;;;0.85;0.50;;;23.70;51.50;;;;;;5075090;28;20041;-65
2024/01/25 09:14:48;;;;;;;0.47;0.43;;;23.90;51.00;;;;;;5078254;28;20036;-65
2024/01/25 09:17:21;;;;;;;0.55;0.45;;;24.20;50.60;;;;;;5078284;28;20032;-65
2024/01/25 09:19:49;;;;;;;0.38;0.38;;;24.30;50.60;;;;;;5079123;28;20040;-65
2024/01/25 09:22:16;;;;;;;1.05;0.50;;;24.20;50.30;;;;;;5078404;28;20020;-65
2024/01/25 09:24:43;;;;;;;0.63;0.50;;;24.10;50.50;;;;;;5077892;28;20020;-65
2024/01/25 09:27:08;;;;;;;0.85;0.55;;;24.20;50.70;;;;;;5074424;28;20483;-65
2024/01/25 09:29:34;;;;;;;0.43;0.35;;;24.40;50.50;;;;;;5077914;28;20051;-67
2024/01/25 09:31:59;;;;;;;0.30;0.30;;;24.50;50.30;;;;;;5079394;28;20040;-67
2024/01/25 09:34:26;;;;;;;0.43;0.40;;;24.50;50.40;;;;;;5077270;28;20036;-67
2024/01/25 09:36:51;;;;;;;0.30;0.30;;;24.40;50.60;;;;;;5068879;28;20028;-67
2024/01/25 09:39:17;;;;;;;0.55;0.50;;;24.30;50.80;;;;;;5076253;28;20135;-66
2024/01/25 09:41:43;;;;;;;0.57;0.38;;;24.30;50.90;;;;;;5077596;28;20166;-66
2024/01/25 09:44:09;;;;;;;0.60;0.50;;;24.20;50.80;;;;;;5078890;28;20115;-66
2024/01/25 09:46:35;;;;;;;0.63;0.40;;;24.20;50.90;;;;;;5078613;28;20028;-66
2024/01/25 09:49:02;;;;;;;0.40;0.40;;;24.10;50.90;;;;;;5059902;28;20190;-66
2024/01/25 09:51:36;;;;;;;1.20;0.70;;;24.10;50.90;;;;;;5076036;28;20029;-67
2024/01/25 09:54:03;;;;;;;2.90;1.10;;;24.10;48.30;;;;;;5079236;28;20496;-67
2024/01/25 09:56:32;;;;;;;1.80;0.90;;;24.00;45.90;;;;;;5077871;28;20039;-67
2024/01/25 09:58:58;;;;;;;1.90;1.00;;;23.90;45.10;;;;;;5075898;28;20039;-65
2024/01/25 10:01:24;;;;;;;2.00;0.90;;;23.80;45.20;;;;;;5067912;28;20378;-65
2024/01/25 10:03:50;;;;;;;2.63;1.30;;;23.70;45.40;;;;;;5077574;28;20032;-65
2024/01/25 10:06:16;;;;;;;1.67;1.05;;;23.60;46.00;;;;;;5075934;28;20137;-66
2024/01/25 10:08:43;;;;;;;2.92;0.85;;;23.60;45.50;;;;;;5077125;28;20028;-65
2024/01/25 10:11:08;;;;;;;2.75;1.10;;;23.50;45.50;;;;;;5060056;28;20113;-65
2024/01/25 10:13:45;;;;;;;2.08;1.08;;;23.50;45.60;;;;;;5077572;28;20078;-65
2024/01/25 10:16:12;;;;;;;2.20;1.00;;;23.40;45.50;;;;;;5081270;28;20476;-65
2024/01/25 10:18:39;;;;;;;1.65;0.90;;;23.30;45.50;;;;;;5084779;28;20617;-64
2024/01/25 10:21:06;;;;;;;2.10;1.08;;;23.30;45.70;;;;;;5077774;28;20112;-64
2024/01/25 10:23:32;;;;;;;2.22;1.00;;;23.20;45.60;;;;;;5080154;28;20035;-64
2024/01/25 10:25:58;;;;;;;2.40;1.42;;;23.20;45.90;;;;;;5080077;28;20480;-64
2024/01/25 10:28:25;;;;;;;2.05;1.05;;;23.20;45.90;;;;;;5078952;28;20032;-63
2024/01/25 10:30:51;;;;;;;1.98;0.90;;;23.10;46.40;;;;;;5079663;28;20163;-65
2024/01/25 10:33:18;;;;;;;1.90;1.00;;;23.10;46.60;;;;;;5081234;28;20134;-65
2024/01/25 10:35:49;;;;;;;2.40;1.13;;;23.00;46.10;;;;;;5079755;28;20025;-65
2024/01/25 10:38:17;;;;;;;2.83;1.17;;;23.00;46.10;;;;;;5083524;28;20154;-66
2024/01/25 10:40:44;;;;;;;1.98;1.00;;;23.00;46.20;;;;;;5079801;28;20040;-66
2024/01/25 10:43:09;;;;;;;2.13;0.90;;;23.00;46.20;;;;;;5080212;28;20511;-67
2024/01/25 10:45:35;;;;;;;1.85;1.05;;;22.90;46.30;;;;;;5079939;28;20024;-67
2024/01/25 10:48:01;;;;;;;2.72;1.10;;;22.90;46.30;;;;;;5080016;28;20024;-67
2024/01/25 10:50:27;;;;;;;2.10;1.10;;;22.90;46.40;;;;;;5078192;28;20077;-67
2024/01/25 10:52:53;;;;;;;1.42;1.10;;;22.80;46.40;;;;;;5081168;28;20039;-67
2024/01/25 10:55:20;;;;;;;2.28;1.10;;;22.80;46.50;;;;;;5081982;28;20027;-67
2024/01/25 10:57:47;;;;;;;1.90;0.80;;;22.80;46.50;;;;;;5079147;28;20484;-67
2024/01/25 11:00:15;;;;;;;2.53;0.90;;;22.70;46.60;;;;;;5081145;28;20032;-67
2024/01/25 11:02:41;;;;;;;1.60;1.00;;;22.70;46.60;;;;;;5081149;28;20482;-67
2024/01/25 11:05:10;;;;;;;1.50;0.90;;;22.70;46.60;;;;;;5081845;28;20553;-67
2024/01/25 11:07:43;;;;;;;2.13;0.82;;;22.70;46.70;;;;;;5080378;28;20523;-67
2024/01/25 11:10:28;;;;;;;1.88;0.98;;;22.70;46.90;;;;;;5063080;28;20036;-66
2024/01/25 11:13:03;;;;;;;1.90;0.90;;;22.60;46.90;;;;;;5079853;28;20523;-66
2024/01/25 11:15:33;;;;;;;2.15;1.00;;;22.60;46.90;;;;;;5079865;28;20016;-67
2024/01/25 11:18:00;;;;;;;4.07;1.00;;;22.60;47.00;;;;;;5081013;28;20013;-67
2024/01/25 11:20:31;;;;;;;1.70;0.82;;;22.50;47.30;;;;;;5080856;28;20024;-67
2024/01/25 11:23:00;;;;;;;1.15;0.70;;;22.50;47.50;;;;;;5079387;28;20613;-67
2024/01/25 11:25:36;;;;;;;1.52;0.70;;;22.40;47.60;;;;;;5079759;28;20024;-67
2024/01/25 11:28:04;;;;;;;1.80;0.82;;;22.40;47.70;;;;;;5077756;28;20179;-66
2024/01/25 11:30:33;;;;;;;1.83;0.90;;;22.40;48.00;;;;;;5079047;28;20028;-64
2024/01/25 11:32:59;;;;;;;1.20;0.77;;;22.40;47.90;;;;;;5081509;28;20485;-64
2024/01/25 11:35:24;;;;;;;1.73;0.80;;;22.40;47.90;;;;;;5078873;28;20060;-63
2024/01/25 11:37:53;;;;;;;1.75;0.82;;;22.40;47.80;;;;;;5077388;28;20366;-65
2024/01/25 11:40:20;;;;;;;1.50;0.80;;;22.40;47.80;;;;;;5077769;28;20285;-65
2024/01/25 11:42:48;;;;;;;1.15;0.80;;;22.40;47.90;;;;;;5097961;28;20035;-64
2024/01/25 11:45:14;;;;;;;2.55;0.90;;;22.40;48.00;;;;;;5076644;28;20177;-64
2024/01/25 11:47:41;;;;;;;1.05;0.70;;;22.40;48.00;;;;;;5081593;28;20068;-64
2024/01/25 11:50:08;;;;;;;1.40;0.90;;;22.30;47.90;;;;;;5079975;28;20027;-64
2024/01/25 11:52:34;;;;;;;1.70;0.82;;;22.30;47.90;;;;;;5078147;28;20051;-65
2024/01/25 11:55:09;;;;;;;2.47;1.10;;;22.30;47.90;;;;;;5079730;28;20405;-64
2024/01/25 11:57:43;;;;;;;2.60;1.50;;;22.30;47.90;;;;;;5078801;28;20371;-64
2024/01/25 12:00:14;;;;;;;2.85;2.00;;;22.30;48.00;;;;;;5079126;28;20444;-64
2024/01/25 12:02:40;;;;;;;3.47;2.25;;;22.20;47.90;;;;;;5080781;28;20021;-64
2024/01/25 12:05:06;;;;;;;4.13;2.83;;;22.20;47.90;;;;;;5081054;28;20046;-64
2024/01/25 12:07:32;;;;;;;4.32;2.95;;;22.20;48.00;;;;;;5079357;28;20024;-64
2024/01/25 12:09:58;;;;;;;4.07;2.80;;;22.20;48.40;;;;;;5079799;28;20039;-64
2024/01/25 12:12:24;;;;;;;3.97;2.90;;;22.20;47.90;;;;;;5078765;28;20032;-64
2024/01/25 12:14:49;;;;;;;4.60;3.13;;;22.20;47.90;;;;;;5077930;28;20020;-64
2024/01/25 12:17:15;;;;;;;4.72;2.92;;;22.10;47.90;;;;;;5075584;28;20020;-63
2024/01/25 12:19:41;;;;;;;4.53;2.88;;;22.10;47.90;;;;;;5080412;28;20536;-63
2024/01/25 12:22:06;;;;;;;5.15;3.63;;;22.10;47.90;;;;;;5079914;28;20089;-64
2024/01/25 12:24:32;;;;;;;5.25;3.42;;;22.10;48.00;;;;;;5078171;28;20025;-65
2024/01/25 12:26:58;;;;;;;5.78;3.70;;;22.10;48.00;;;;;;5079778;28;20051;-64
2024/01/25 12:29:24;;;;;;;5.40;3.50;;;22.10;48.20;;;;;;5076041;28;20771;-64
2024/01/25 12:31:50;;;;;;;7.03;3.30;;;22.10;48.20;;;;;;5079388;28;20024;-64
2024/01/25 12:34:15;;;;;;;5.53;3.20;;;22.10;48.10;;;;;;5079910;28;20035;-64
2024/01/25 12:36:42;;;;;;;5.50;3.30;;;22.10;48.20;;;;;;5076814;28;20035;-64
2024/01/25 12:39:08;;;;;;;5.95;3.50;;;22.10;48.20;;;;;;5082824;28;20024;-65
2024/01/25 12:41:35;;;;;;;5.45;3.30;;;22.10;48.20;;;;;;5069621;28;20028;-66
2024/01/25 12:44:01;;;;;;;4.80;2.78;;;22.10;48.30;;;;;;5079016;28;20043;-66